createdAt,value
2022-10-17T00:00:07.957Z,4.60
2022-10-17T00:01:08.024Z,4.70
2022-10-17T00:02:07.965Z,5.30
2022-10-17T00:03:07.958Z,3.60
2022-10-17T00:04:07.963Z,4.80
2022-10-17T00:05:07.952Z,3.80
2022-10-17T00:06:07.915Z,5.10
2022-10-17T00:07:07.893Z,3.80
2022-10-17T00:08:07.899Z,3.60
2022-10-17T00:09:07.923Z,4.20
2022-10-17T00:10:07.856Z,3.50
2022-10-17T00:11:07.851Z,3.40
2022-10-17T00:12:07.883Z,3.50
2022-10-17T00:13:07.859Z,3.70
2022-10-17T00:14:07.834Z,3.30
2022-10-17T00:15:07.830Z,3.70
2022-10-17T00:16:07.806Z,5.30
2022-10-17T00:17:07.819Z,3.90
2022-10-17T00:18:07.818Z,3.90
2022-10-17T00:19:07.783Z,4.00
2022-10-17T00:20:07.754Z,4.90
2022-10-17T00:21:07.756Z,8.80
2022-10-17T00:22:07.732Z,4.60
2022-10-17T00:23:07.758Z,13.40
2022-10-17T00:24:07.744Z,8.80
2022-10-17T00:25:07.716Z,4.10
2022-10-17T00:26:07.687Z,5.20
2022-10-17T00:27:07.687Z,4.60
2022-10-17T00:28:07.680Z,5.10
2022-10-17T00:29:07.780Z,6.50
2022-10-17T00:30:07.671Z,4.90
2022-10-17T00:31:07.643Z,9.30
2022-10-17T00:32:07.625Z,5.10
2022-10-17T00:33:07.649Z,4.70
2022-10-17T00:34:07.621Z,7.70
2022-10-17T00:35:07.641Z,3.70
2022-10-17T00:36:07.620Z,3.30
2022-10-17T00:37:07.573Z,3.80
2022-10-17T00:38:07.572Z,3.40
2022-10-17T00:39:07.569Z,3.40
2022-10-17T00:40:07.539Z,3.90
2022-10-17T00:41:07.568Z,6.60
2022-10-17T00:42:07.537Z,4.30
2022-10-17T00:43:07.525Z,5.80
2022-10-17T00:44:07.520Z,6.80
2022-10-17T00:45:07.491Z,4.70
2022-10-17T00:46:07.490Z,14.80
2022-10-17T00:47:07.502Z,6.80
2022-10-17T00:48:07.476Z,5.30
2022-10-17T00:49:07.472Z,7.60
2022-10-17T00:50:07.455Z,10.40
2022-10-17T00:51:07.451Z,5.00
2022-10-17T00:52:07.412Z,4.60
2022-10-17T00:53:07.415Z,5.30
2022-10-17T00:54:07.422Z,5.30
2022-10-17T00:55:07.422Z,4.80
2022-10-17T00:56:07.380Z,4.10
2022-10-17T00:57:07.374Z,5.10
2022-10-17T00:58:07.362Z,4.10
2022-10-17T00:59:07.361Z,9.10
2022-10-17T01:00:07.353Z,7.00
2022-10-17T01:01:07.382Z,8.90
2022-10-17T01:02:07.319Z,4.80
2022-10-17T01:03:07.326Z,5.30
2022-10-17T01:04:07.300Z,6.50
2022-10-17T01:05:07.328Z,5.60
2022-10-17T01:06:07.290Z,8.10
2022-10-17T01:07:07.261Z,8.30
2022-10-17T01:08:07.271Z,6.10
2022-10-17T01:09:07.250Z,5.50
2022-10-17T01:10:07.240Z,10.00
2022-10-17T01:11:07.260Z,8.20
2022-10-17T01:12:07.239Z,18.10
2022-10-17T01:13:07.213Z,6.50
2022-10-17T01:14:07.211Z,12.20
2022-10-17T01:15:07.183Z,8.80
2022-10-17T01:16:07.182Z,7.90
2022-10-17T01:17:07.208Z,8.50
2022-10-17T01:18:07.160Z,7.50
2022-10-17T01:19:07.130Z,8.50
2022-10-17T01:20:07.153Z,7.40
2022-10-17T01:21:07.146Z,6.30
2022-10-17T01:22:07.143Z,7.60
2022-10-17T01:23:07.110Z,6.40
2022-10-17T01:24:07.174Z,6.40
2022-10-17T01:25:07.079Z,7.00
2022-10-17T01:26:07.091Z,6.20
2022-10-17T01:27:07.072Z,6.70
2022-10-17T01:28:07.079Z,6.70
2022-10-17T01:29:07.022Z,13.30
2022-10-17T01:30:07.031Z,11.60
2022-10-17T01:31:07.027Z,8.60
2022-10-17T01:32:07.026Z,7.60
2022-10-17T01:33:06.998Z,8.00
2022-10-17T01:34:07.003Z,8.20
2022-10-17T01:35:06.975Z,7.50
2022-10-17T01:36:06.979Z,7.20
2022-10-17T01:37:06.967Z,7.00
2022-10-17T01:38:06.935Z,6.90
2022-10-17T01:39:06.946Z,9.50
2022-10-17T01:40:06.936Z,6.60
2022-10-17T01:41:06.912Z,6.50
2022-10-17T01:42:06.933Z,7.20
2022-10-17T01:43:06.875Z,8.20
2022-10-17T01:44:06.884Z,10.80
2022-10-17T01:45:06.855Z,10.80
2022-10-17T01:46:06.891Z,10.10
2022-10-17T01:47:06.835Z,9.70
2022-10-17T01:48:06.840Z,10.30
2022-10-17T01:49:06.837Z,28.70
2022-10-17T01:50:06.824Z,50.70
2022-10-17T01:51:06.797Z,10.50
2022-10-17T01:52:06.805Z,14.80
2022-10-17T01:53:06.797Z,10.50
2022-10-17T01:54:06.766Z,10.60
2022-10-17T01:55:06.771Z,10.40
2022-10-17T01:56:06.757Z,9.80
2022-10-17T01:57:06.737Z,9.00
2022-10-17T01:58:06.760Z,9.20
2022-10-17T01:59:06.735Z,10.40
2022-10-17T02:00:06.713Z,22.80
2022-10-17T02:01:06.756Z,10.40
2022-10-17T02:02:06.692Z,9.10
2022-10-17T02:03:06.670Z,10.10
2022-10-17T02:04:06.678Z,9.00
2022-10-17T02:05:06.643Z,7.40
2022-10-17T02:06:06.683Z,7.50
2022-10-17T02:07:06.636Z,14.50
2022-10-17T02:08:06.612Z,17.70
2022-10-17T02:09:06.612Z,19.50
2022-10-17T02:10:06.618Z,19.50
2022-10-17T02:11:06.589Z,7.20
2022-10-17T02:12:06.613Z,9.80
2022-10-17T02:13:06.573Z,8.20
2022-10-17T02:14:06.645Z,8.70
2022-10-17T02:15:06.558Z,7.90
2022-10-17T02:16:06.548Z,6.40
2022-10-17T02:17:06.517Z,7.50
2022-10-17T02:18:06.566Z,7.80
2022-10-17T02:19:06.512Z,6.80
2022-10-17T02:20:06.499Z,42.80
2022-10-17T02:21:06.522Z,10.60
2022-10-17T02:22:06.511Z,30.80
2022-10-17T02:23:06.506Z,23.30
2022-10-17T02:24:06.457Z,14.10
2022-10-17T02:25:06.442Z,36.20
2022-10-17T02:26:06.442Z,13.90
2022-10-17T02:27:06.438Z,15.90
2022-10-17T02:28:06.454Z,15.50
2022-10-17T02:29:06.407Z,14.40
2022-10-17T02:30:06.403Z,12.70
2022-10-17T02:31:06.382Z,14.90
2022-10-17T02:32:06.379Z,15.50
2022-10-17T02:33:06.377Z,13.20
2022-10-17T02:34:06.350Z,13.50
2022-10-17T02:35:06.355Z,12.10
2022-10-17T02:36:06.334Z,11.90
2022-10-17T02:37:06.303Z,10.80
2022-10-17T02:38:06.319Z,11.20
2022-10-17T02:39:06.298Z,10.70
2022-10-17T02:40:06.311Z,11.10
2022-10-17T02:41:06.276Z,11.60
2022-10-17T02:42:06.293Z,10.60
2022-10-17T02:43:06.255Z,11.50
2022-10-17T02:44:06.279Z,12.80
2022-10-17T02:45:06.252Z,9.30
2022-10-17T02:46:06.230Z,9.40
2022-10-17T02:47:06.206Z,9.20
2022-10-17T02:48:06.212Z,9.90
2022-10-17T02:49:06.191Z,10.00
2022-10-17T02:50:06.202Z,15.40
2022-10-17T02:51:06.191Z,11.00
2022-10-17T02:52:06.196Z,10.80
2022-10-17T02:53:06.136Z,10.60
2022-10-17T02:54:06.164Z,11.90
2022-10-17T02:55:06.127Z,13.70
2022-10-17T02:56:06.147Z,16.00
2022-10-17T02:57:06.129Z,13.70
2022-10-17T02:58:06.090Z,12.00
2022-10-17T02:59:06.107Z,12.50
2022-10-17T03:00:06.077Z,11.80
2022-10-17T03:01:06.125Z,11.10
2022-10-17T03:02:06.051Z,10.60
2022-10-17T03:03:06.047Z,9.30
2022-10-17T03:04:06.037Z,9.30
2022-10-17T03:05:06.029Z,9.80
2022-10-17T03:06:06.028Z,9.00
2022-10-17T03:07:05.995Z,9.90
2022-10-17T03:08:06.013Z,10.10
2022-10-17T03:09:05.990Z,10.50
2022-10-17T03:10:05.991Z,8.90
2022-10-17T03:11:05.968Z,10.00
2022-10-17T03:12:05.972Z,9.90
2022-10-17T03:13:05.954Z,18.70
2022-10-17T03:14:05.939Z,18.80
2022-10-17T03:15:05.933Z,11.80
2022-10-17T03:16:05.929Z,13.40
2022-10-17T03:17:05.889Z,19.20
2022-10-17T03:18:05.901Z,10.10
2022-10-17T03:19:05.867Z,8.40
2022-10-17T03:20:05.909Z,8.80
2022-10-17T03:21:05.907Z,8.90
2022-10-17T03:22:05.866Z,7.70
2022-10-17T03:23:05.829Z,8.40
2022-10-17T03:24:05.830Z,8.90
2022-10-17T03:25:05.843Z,14.30
2022-10-17T03:26:05.840Z,26.40
2022-10-17T03:27:05.797Z,19.50
2022-10-17T03:28:05.803Z,9.00
2022-10-17T03:29:05.812Z,9.00
2022-10-17T03:30:05.769Z,10.10
2022-10-17T03:31:05.812Z,9.00
2022-10-17T03:32:05.770Z,8.40
2022-10-17T03:33:05.754Z,7.70
2022-10-17T03:34:05.742Z,7.60
2022-10-17T03:35:05.705Z,7.40
2022-10-17T03:36:05.719Z,7.50
2022-10-17T03:37:05.682Z,8.00
2022-10-17T03:38:05.685Z,6.90
2022-10-17T03:39:05.675Z,6.90
2022-10-17T03:40:05.667Z,7.60
2022-10-17T03:41:05.656Z,8.10
2022-10-17T03:42:05.667Z,6.30
2022-10-17T03:43:05.630Z,6.50
2022-10-17T03:44:05.617Z,14.60
2022-10-17T03:45:05.605Z,6.90
2022-10-17T03:46:05.685Z,7.90
2022-10-17T03:47:08.146Z,6.70
2022-10-17T03:48:05.612Z,23.00
2022-10-17T03:49:05.574Z,6.40
2022-10-17T03:50:05.564Z,6.40
2022-10-17T03:51:05.536Z,6.60
2022-10-17T03:52:05.547Z,6.50
2022-10-17T03:53:05.511Z,6.60
2022-10-17T03:54:05.520Z,6.20
2022-10-17T03:55:05.500Z,7.40
2022-10-17T03:56:05.483Z,7.50
2022-10-17T03:57:05.500Z,7.10
2022-10-17T03:58:05.485Z,8.00
2022-10-17T03:59:05.463Z,7.80
2022-10-17T04:00:05.457Z,9.20
2022-10-17T04:01:05.498Z,9.80
2022-10-17T04:02:05.476Z,11.40
2022-10-17T04:03:05.416Z,12.60
2022-10-17T04:04:05.444Z,9.50
2022-10-17T04:05:05.431Z,8.20
2022-10-17T04:06:05.426Z,7.80
2022-10-17T04:07:05.365Z,12.70
2022-10-17T04:08:05.391Z,8.10
2022-10-17T04:09:05.363Z,10.20
2022-10-17T04:10:05.381Z,8.90
2022-10-17T04:11:05.346Z,10.70
2022-10-17T04:12:05.348Z,8.60
2022-10-17T04:13:05.315Z,8.30
2022-10-17T04:14:05.301Z,9.30
2022-10-17T04:15:05.287Z,8.90
2022-10-17T04:16:05.318Z,8.80
2022-10-17T04:17:05.274Z,39.30
2022-10-17T04:19:05.248Z,18.10
2022-10-17T04:20:05.250Z,10.00
2022-10-17T04:21:05.240Z,9.90
2022-10-17T04:22:05.225Z,10.70
2022-10-17T04:23:05.209Z,9.70
2022-10-17T04:24:05.206Z,21.20
2022-10-17T04:25:05.336Z,14.40
2022-10-17T04:26:05.185Z,23.30
2022-10-17T04:27:05.158Z,11.60
2022-10-17T04:28:05.181Z,11.20
2022-10-17T04:29:05.184Z,10.00
2022-10-17T04:30:05.142Z,15.30
2022-10-17T04:31:05.131Z,15.80
2022-10-17T04:32:05.120Z,9.90
2022-10-17T04:33:05.117Z,18.20
2022-10-17T04:34:05.119Z,11.10
2022-10-17T04:35:05.107Z,9.70
2022-10-17T04:36:05.076Z,8.70
2022-10-17T04:37:05.063Z,8.70
2022-10-17T04:38:05.072Z,7.50
2022-10-17T04:39:05.062Z,8.40
2022-10-17T04:40:05.051Z,7.40
2022-10-17T04:41:05.017Z,7.30
2022-10-17T04:42:05.087Z,7.40
2022-10-17T04:43:05.001Z,7.20
2022-10-17T04:44:05.004Z,8.10
2022-10-17T04:45:04.988Z,10.80
2022-10-17T04:46:04.984Z,11.50
2022-10-17T04:47:05.886Z,12.90
2022-10-17T04:48:04.965Z,8.20
2022-10-17T04:49:04.926Z,16.20
2022-10-17T04:50:05.029Z,8.50
2022-10-17T04:51:04.955Z,14.00
2022-10-17T04:52:04.944Z,11.50
2022-10-17T04:53:04.985Z,10.10
2022-10-17T04:54:04.914Z,11.60
2022-10-17T04:55:04.866Z,17.80
2022-10-17T04:56:04.866Z,8.90
2022-10-17T04:57:04.854Z,15.00
2022-10-17T04:58:04.871Z,8.40
2022-10-17T04:59:04.827Z,7.60
2022-10-17T05:00:04.875Z,7.10
2022-10-17T05:01:04.899Z,6.70
2022-10-17T05:02:04.807Z,6.90
2022-10-17T05:03:04.802Z,6.70
2022-10-17T05:04:04.790Z,11.20
2022-10-17T05:05:04.758Z,6.40
2022-10-17T05:06:04.800Z,9.00
2022-10-17T05:07:04.767Z,6.80
2022-10-17T05:08:04.938Z,6.50
2022-10-17T05:09:04.746Z,6.40
2022-10-17T05:10:04.711Z,7.20
2022-10-17T05:11:04.702Z,7.50
2022-10-17T05:12:06.710Z,6.90
2022-10-17T05:13:04.693Z,28.70
2022-10-17T05:14:05.330Z,8.30
2022-10-17T05:15:04.648Z,10.20
2022-10-17T05:16:04.616Z,29.10
2022-10-17T05:17:04.652Z,16.30
2022-10-17T05:18:04.648Z,35.40
2022-10-17T05:19:04.629Z,19.30
2022-10-17T05:20:04.615Z,12.30
2022-10-17T05:21:04.621Z,10.10
2022-10-17T05:22:04.586Z,11.60
2022-10-17T05:23:04.617Z,12.90
2022-10-17T05:24:04.562Z,11.80
2022-10-17T05:25:04.580Z,10.90
2022-10-17T05:26:04.553Z,8.40
2022-10-17T05:27:04.490Z,8.60
2022-10-17T05:28:04.528Z,8.40
2022-10-17T05:29:04.531Z,9.90
2022-10-17T05:30:04.470Z,9.10
2022-10-17T05:31:04.441Z,14.20
2022-10-17T05:32:04.427Z,10.70
2022-10-17T05:33:04.477Z,8.50
2022-10-17T05:34:04.417Z,10.10
2022-10-17T05:35:04.413Z,16.60
2022-10-17T05:36:04.374Z,12.80
2022-10-17T05:37:04.378Z,11.40
2022-10-17T05:38:04.375Z,11.80
2022-10-17T05:39:04.365Z,10.10
2022-10-17T05:40:04.412Z,9.30
2022-10-17T05:41:04.343Z,17.20
2022-10-17T05:42:04.333Z,9.10
2022-10-17T05:43:04.369Z,18.10
2022-10-17T05:44:05.645Z,8.90
2022-10-17T05:45:04.292Z,8.40
2022-10-17T05:46:04.322Z,14.30
2022-10-17T05:47:04.317Z,16.90
2022-10-17T05:48:04.256Z,9.80
2022-10-17T05:49:14.686Z,18.40
2022-10-17T05:50:04.264Z,11.00
2022-10-17T05:51:04.257Z,22.60
2022-10-17T05:52:04.223Z,10.00
2022-10-17T05:53:04.918Z,21.60
2022-10-17T05:54:29.926Z,14.00
2022-10-17T05:55:08.780Z,9.50
2022-10-17T05:57:03.794Z,7.70
2022-10-17T05:57:08.704Z,8.10
2022-10-17T05:58:11.711Z,9.70
2022-10-17T05:59:08.711Z,18.70
2022-10-17T06:00:08.714Z,17.60
2022-10-17T06:01:10.763Z,19.20
2022-10-17T06:02:08.737Z,18.70
2022-10-17T06:03:08.650Z,16.80
2022-10-17T06:04:08.679Z,17.50
2022-10-17T06:05:08.665Z,17.90
2022-10-17T06:06:08.637Z,14.40
2022-10-17T06:07:08.643Z,17.40
2022-10-17T06:08:08.626Z,18.90
2022-10-17T06:09:08.590Z,21.50
2022-10-17T06:10:08.585Z,17.90
2022-10-17T06:11:10.232Z,13.80
2022-10-17T06:12:08.586Z,10.60
2022-10-17T06:13:08.557Z,10.40
2022-10-17T06:14:08.526Z,10.90
2022-10-17T06:15:08.539Z,12.00
2022-10-17T06:16:08.600Z,9.00
2022-10-17T06:17:13.384Z,9.80
2022-10-17T06:18:08.549Z,10.80
2022-10-17T06:19:08.510Z,8.70
2022-10-17T06:20:08.526Z,16.00
2022-10-17T06:21:08.498Z,15.00
2022-10-17T06:22:08.507Z,14.90
2022-10-17T06:23:08.511Z,11.80
2022-10-17T06:24:08.484Z,14.40
2022-10-17T06:25:08.430Z,11.70
2022-10-17T06:26:08.434Z,17.10
2022-10-17T06:27:11.713Z,9.50
2022-10-17T06:28:08.417Z,9.40
2022-10-17T06:29:08.446Z,9.50
2022-10-17T06:30:08.397Z,8.80
2022-10-17T06:31:08.357Z,12.20
2022-10-17T06:32:11.110Z,11.80
2022-10-17T06:33:08.414Z,14.10
2022-10-17T06:34:08.345Z,13.60
2022-10-17T06:35:08.321Z,9.50
2022-10-17T06:36:08.314Z,9.70
2022-10-17T06:37:08.292Z,16.80
2022-10-17T06:38:08.360Z,16.40
2022-10-17T06:39:08.270Z,13.90
2022-10-17T06:40:08.302Z,13.50
2022-10-17T06:41:08.327Z,19.20
2022-10-17T06:42:08.263Z,21.30
2022-10-17T06:43:08.226Z,20.30
2022-10-17T06:44:08.263Z,16.70
2022-10-17T06:45:08.233Z,16.40
2022-10-17T06:46:08.236Z,10.20
2022-10-17T06:47:08.199Z,9.90
2022-10-17T06:48:08.191Z,11.00
2022-10-17T06:49:08.179Z,9.80
2022-10-17T06:50:08.208Z,16.10
2022-10-17T06:51:08.187Z,18.10
2022-10-17T06:52:08.140Z,20.20
2022-10-17T06:53:08.170Z,20.40
2022-10-17T06:54:08.119Z,24.20
2022-10-17T06:55:08.113Z,16.80
2022-10-17T06:56:08.120Z,16.20
2022-10-17T06:57:08.162Z,22.70
2022-10-17T06:58:08.114Z,14.80
2022-10-17T06:59:08.116Z,15.80
2022-10-17T07:00:08.060Z,15.00
2022-10-17T07:02:08.037Z,11.20
2022-10-17T07:03:08.034Z,12.60
2022-10-17T07:04:08.076Z,14.80
2022-10-17T07:05:08.025Z,12.20
2022-10-17T07:06:08.003Z,12.50
2022-10-17T07:07:07.986Z,10.20
2022-10-17T07:08:08.029Z,12.90
2022-10-17T07:09:07.955Z,17.00
2022-10-17T07:10:08.003Z,16.10
2022-10-17T07:11:07.942Z,13.50
2022-10-17T07:12:07.950Z,18.20
2022-10-17T07:13:07.944Z,19.90
2022-10-17T07:14:07.932Z,21.70
2022-10-17T07:15:07.906Z,24.60
2022-10-17T07:16:07.915Z,22.00
2022-10-17T07:17:07.934Z,16.70
2022-10-17T07:18:07.893Z,23.00
2022-10-17T07:19:07.852Z,13.60
2022-10-17T07:20:07.892Z,18.70
2022-10-17T07:21:07.822Z,19.90
2022-10-17T07:22:07.852Z,17.80
2022-10-17T07:23:07.819Z,14.00
2022-10-17T07:24:07.835Z,18.40
2022-10-17T07:25:07.809Z,21.10
2022-10-17T07:26:07.832Z,19.30
2022-10-17T07:27:07.800Z,21.70
2022-10-17T07:28:07.788Z,20.90
2022-10-17T07:29:07.880Z,15.40
2022-10-17T07:30:07.794Z,17.20
2022-10-17T07:31:07.737Z,15.00
2022-10-17T07:32:07.734Z,19.40
2022-10-17T07:33:07.726Z,16.60
2022-10-17T07:34:07.707Z,25.10
2022-10-17T07:35:07.708Z,24.60
2022-10-17T07:36:07.704Z,26.90
2022-10-17T07:37:07.666Z,24.90
2022-10-17T07:38:07.675Z,25.20
2022-10-17T07:39:07.719Z,25.00
2022-10-17T07:40:07.707Z,29.60
2022-10-17T07:41:07.616Z,23.80
2022-10-17T07:42:07.655Z,27.40
2022-10-17T07:43:07.613Z,21.10
2022-10-17T07:44:07.621Z,25.50
2022-10-17T07:45:07.588Z,35.00
2022-10-17T07:46:07.592Z,27.70
2022-10-17T07:47:07.582Z,34.60
2022-10-17T07:48:07.557Z,22.00
2022-10-17T07:49:07.554Z,15.60
2022-10-17T07:50:07.553Z,29.90
2022-10-17T07:51:07.516Z,28.30
2022-10-17T07:52:07.536Z,21.50
2022-10-17T07:53:07.511Z,24.80
2022-10-17T07:54:07.504Z,22.70
2022-10-17T07:55:07.492Z,25.50
2022-10-17T07:56:07.501Z,22.40
2022-10-17T07:57:07.457Z,26.90
2022-10-17T07:58:07.453Z,25.20
2022-10-17T07:59:09.398Z,23.30
2022-10-17T08:00:07.436Z,28.10
2022-10-17T08:01:09.516Z,23.10
2022-10-17T08:02:07.417Z,26.80
2022-10-17T08:03:07.466Z,23.70
2022-10-17T08:04:07.414Z,23.10
2022-10-17T08:05:07.417Z,33.70
2022-10-17T08:06:07.389Z,26.10
2022-10-17T08:07:20.996Z,27.30
2022-10-17T08:08:07.347Z,22.10
2022-10-17T08:09:07.348Z,23.10
2022-10-17T08:11:07.315Z,27.00
2022-10-17T08:12:07.314Z,32.30
2022-10-17T08:13:07.293Z,26.10
2022-10-17T08:14:07.333Z,27.20
2022-10-17T08:15:07.316Z,33.90
2022-10-17T08:16:07.293Z,31.80
2022-10-17T08:17:07.241Z,22.30
2022-10-17T08:18:07.241Z,25.10
2022-10-17T08:19:10.261Z,26.40
2022-10-17T08:20:07.211Z,17.90
2022-10-17T08:21:07.215Z,15.80
2022-10-17T08:22:07.241Z,15.20
2022-10-17T08:23:07.197Z,19.40
2022-10-17T08:24:07.201Z,13.50
2022-10-17T08:25:07.159Z,11.00
2022-10-17T08:26:07.202Z,11.80
2022-10-17T08:27:07.162Z,11.80
2022-10-17T08:29:07.161Z,9.60
2022-10-17T08:30:07.121Z,8.90
2022-10-17T08:31:07.095Z,8.50
2022-10-17T08:32:09.583Z,7.30
2022-10-17T08:33:07.121Z,7.30
2022-10-17T08:34:07.058Z,6.00
2022-10-17T08:35:07.066Z,5.90
2022-10-17T08:36:07.081Z,6.20
2022-10-17T08:37:07.061Z,5.00
2022-10-17T08:38:09.099Z,5.00
2022-10-17T08:39:07.080Z,5.60
2022-10-17T08:40:07.018Z,5.80
2022-10-17T08:41:07.013Z,5.30
2022-10-17T08:42:06.984Z,5.10
2022-10-17T08:43:07.242Z,4.50
2022-10-17T08:44:06.958Z,4.70
2022-10-17T08:45:07.041Z,4.80
2022-10-17T08:46:06.997Z,4.30
2022-10-17T08:47:06.937Z,4.40
2022-10-17T08:48:06.932Z,4.30
2022-10-17T08:49:10.051Z,4.50
2022-10-17T08:50:06.912Z,4.50
2022-10-17T08:51:06.878Z,4.00
2022-10-17T08:52:06.918Z,4.00
2022-10-17T08:53:06.876Z,4.50
2022-10-17T08:54:06.852Z,4.00
2022-10-17T08:55:06.874Z,4.00
2022-10-17T08:56:07.170Z,3.80
2022-10-17T08:57:06.823Z,4.30
2022-10-17T08:58:06.823Z,3.90
2022-10-17T08:59:06.796Z,3.70
2022-10-17T09:00:06.809Z,3.90
2022-10-17T09:01:10.518Z,3.70
2022-10-17T09:02:06.794Z,3.50
2022-10-17T09:03:06.861Z,3.70
2022-10-17T09:04:06.765Z,3.80
2022-10-17T09:05:06.755Z,3.60
2022-10-17T09:06:06.735Z,3.50
2022-10-17T09:07:06.738Z,3.70
2022-10-17T09:08:06.793Z,3.60
2022-10-17T09:09:06.724Z,3.50
2022-10-17T09:10:06.699Z,4.00
2022-10-17T09:11:06.675Z,3.30
2022-10-17T09:12:06.682Z,3.30
2022-10-17T09:13:07.830Z,3.30
2022-10-17T09:14:06.682Z,3.60
2022-10-17T09:15:06.632Z,3.40
2022-10-17T09:16:06.647Z,3.70
2022-10-17T09:17:06.605Z,3.40
2022-10-17T09:18:06.622Z,3.30
2022-10-17T09:19:06.604Z,3.50
2022-10-17T09:20:06.611Z,3.30
2022-10-17T09:21:06.579Z,3.40
2022-10-17T09:22:06.563Z,3.40
2022-10-17T09:23:06.573Z,3.50
2022-10-17T09:24:09.582Z,3.40
2022-10-17T09:25:06.566Z,3.10
2022-10-17T09:26:06.518Z,3.10
2022-10-17T09:27:06.516Z,3.50
2022-10-17T09:28:06.509Z,3.30
2022-10-17T09:29:06.560Z,3.30
2022-10-17T09:30:07.243Z,3.20
2022-10-17T09:31:06.508Z,3.60
2022-10-17T09:32:06.451Z,3.40
2022-10-17T09:33:06.467Z,3.20
2022-10-17T09:34:06.447Z,3.30
2022-10-17T09:35:06.457Z,3.60
2022-10-17T09:36:06.411Z,3.10
2022-10-17T09:37:06.417Z,3.30
2022-10-17T09:38:06.409Z,3.30
2022-10-17T09:39:06.398Z,3.20
2022-10-17T09:40:06.393Z,3.20
2022-10-17T09:41:19.905Z,3.30
2022-10-17T09:42:06.449Z,3.00
2022-10-17T09:43:06.380Z,3.50
2022-10-17T09:44:06.388Z,3.60
2022-10-17T09:45:06.385Z,2.90
2022-10-17T09:46:06.345Z,3.20
2022-10-17T09:47:06.434Z,3.20
2022-10-17T09:48:06.343Z,3.10
2022-10-17T09:49:06.386Z,3.30
2022-10-17T09:50:06.400Z,3.20
2022-10-17T09:51:22.024Z,3.40
2022-10-17T09:52:06.248Z,2.90
2022-10-17T09:53:06.257Z,3.50
2022-10-17T09:54:06.304Z,3.00
2022-10-17T09:55:06.254Z,3.00
2022-10-17T09:56:06.299Z,3.20
2022-10-17T09:57:06.259Z,3.50
2022-10-17T09:58:06.220Z,3.40
2022-10-17T09:59:09.285Z,2.90
2022-10-17T10:00:06.331Z,3.50
2022-10-17T10:01:06.301Z,3.40
2022-10-17T10:02:06.212Z,3.00
2022-10-17T10:03:06.168Z,3.10
2022-10-17T10:04:06.158Z,3.00
2022-10-17T10:05:07.079Z,3.30
2022-10-17T10:06:06.141Z,3.20
2022-10-17T10:07:06.116Z,3.00
2022-10-17T10:08:06.076Z,3.40
2022-10-17T10:09:06.074Z,3.40
2022-10-17T10:10:06.054Z,3.40
2022-10-17T10:11:06.560Z,3.50
2022-10-17T10:12:06.153Z,3.60
2022-10-17T10:13:06.085Z,3.20
2022-10-17T10:14:06.000Z,3.80
2022-10-17T10:15:06.011Z,3.40
2022-10-17T10:16:05.981Z,3.20
2022-10-17T10:17:06.054Z,3.20
2022-10-17T10:18:05.953Z,3.30
2022-10-17T10:19:08.489Z,3.30
2022-10-17T10:20:05.960Z,3.80
2022-10-17T10:21:05.941Z,3.50
2022-10-17T10:22:05.943Z,3.60
2022-10-17T10:23:05.911Z,3.80
2022-10-17T10:24:05.934Z,3.60
2022-10-17T10:25:05.886Z,3.60
2022-10-17T10:26:05.865Z,3.60
2022-10-17T10:27:05.895Z,3.40
2022-10-17T10:28:05.852Z,3.70
2022-10-17T10:29:05.915Z,3.80
2022-10-17T10:30:05.850Z,3.70
2022-10-17T10:31:05.822Z,3.80
2022-10-17T10:32:05.818Z,3.40
2022-10-17T10:33:05.845Z,3.60
2022-10-17T10:34:05.794Z,3.40
2022-10-17T10:35:05.777Z,3.50
2022-10-17T10:36:05.788Z,3.40
2022-10-17T10:37:05.769Z,3.40
2022-10-17T10:38:05.745Z,3.20
2022-10-17T10:39:05.767Z,3.40
2022-10-17T10:40:05.722Z,3.40
2022-10-17T10:41:05.739Z,3.10
2022-10-17T10:42:05.700Z,4.00
2022-10-17T10:43:05.860Z,3.50
2022-10-17T10:44:05.689Z,3.40
2022-10-17T10:45:05.679Z,3.40
2022-10-17T10:46:05.663Z,3.30
2022-10-17T10:47:05.641Z,3.10
2022-10-17T10:48:05.678Z,3.50
2022-10-17T10:49:05.650Z,2.90
2022-10-17T10:50:05.618Z,3.30
2022-10-17T10:51:05.624Z,3.10
2022-10-17T10:52:05.598Z,3.20
2022-10-17T10:53:05.610Z,3.10
2022-10-17T10:54:05.577Z,3.30
2022-10-17T10:55:05.577Z,3.20
2022-10-17T10:56:05.552Z,3.10
2022-10-17T10:57:05.575Z,3.60
2022-10-17T10:58:05.913Z,3.30
2022-10-17T10:59:05.518Z,3.10
2022-10-17T11:00:05.520Z,3.30
2022-10-17T11:01:05.583Z,3.50
2022-10-17T11:02:05.490Z,3.10
2022-10-17T11:03:06.817Z,3.40
2022-10-17T11:04:05.460Z,3.40
2022-10-17T11:05:05.478Z,3.20
2022-10-17T11:06:05.434Z,3.40
2022-10-17T11:07:05.485Z,3.50
2022-10-17T11:08:05.455Z,3.10
2022-10-17T11:09:05.432Z,3.30
2022-10-17T11:10:05.405Z,3.20
2022-10-17T11:11:05.434Z,3.30
2022-10-17T11:12:05.413Z,3.00
2022-10-17T11:13:05.363Z,3.20
2022-10-17T11:14:05.377Z,3.70
2022-10-17T11:15:05.361Z,3.20
2022-10-17T11:16:05.378Z,3.30
2022-10-17T11:17:05.325Z,3.20
2022-10-17T11:18:05.316Z,3.40
2022-10-17T11:19:05.366Z,3.10
2022-10-17T11:20:05.299Z,3.10
2022-10-17T11:21:05.306Z,3.30
2022-10-17T11:22:05.265Z,3.00
2022-10-17T11:23:05.278Z,3.30
2022-10-17T11:24:07.031Z,3.10
2022-10-17T11:25:05.255Z,3.70
2022-10-17T11:26:05.244Z,3.70
2022-10-17T11:27:05.255Z,3.40
2022-10-17T11:28:05.503Z,4.00
2022-10-17T11:29:05.288Z,4.10
2022-10-17T11:30:05.215Z,4.30
2022-10-17T11:31:07.269Z,4.00
2022-10-17T11:32:05.203Z,4.30
2022-10-17T11:33:05.225Z,4.20
2022-10-17T11:34:05.156Z,4.10
2022-10-17T11:35:05.161Z,4.30
2022-10-17T11:36:05.181Z,4.40
2022-10-17T11:37:05.217Z,4.50
2022-10-17T11:38:05.109Z,4.40
2022-10-17T11:39:05.129Z,4.00
2022-10-17T11:40:05.092Z,4.30
2022-10-17T11:41:05.106Z,4.00
2022-10-17T11:42:05.119Z,4.00
2022-10-17T11:43:05.100Z,3.90
2022-10-17T11:44:05.073Z,4.00
2022-10-17T11:45:05.075Z,4.10
2022-10-17T11:46:05.027Z,4.30
2022-10-17T11:47:05.017Z,4.30
2022-10-17T11:48:05.031Z,3.80
2022-10-17T11:49:05.098Z,4.20
2022-10-17T11:52:04.980Z,4.50
2022-10-17T11:53:05.073Z,4.70
2022-10-17T11:54:04.982Z,4.30
2022-10-17T11:55:04.959Z,4.10
2022-10-17T11:56:04.936Z,4.70
2022-10-17T11:57:04.921Z,4.30
2022-10-17T11:58:04.911Z,4.60
2022-10-17T11:59:04.932Z,4.70
2022-10-17T12:00:04.900Z,4.60
2022-10-17T12:01:04.869Z,5.00
2022-10-17T12:02:04.837Z,4.90
2022-10-17T12:03:04.863Z,4.50
2022-10-17T12:04:04.899Z,4.40
2022-10-17T12:05:04.847Z,4.50
2022-10-17T12:06:04.870Z,5.00
2022-10-17T12:07:04.827Z,5.10
2022-10-17T12:08:04.795Z,4.80
2022-10-17T12:09:04.772Z,5.50
2022-10-17T12:10:04.758Z,4.80
2022-10-17T12:11:04.775Z,4.60
2022-10-17T12:12:04.737Z,4.70
2022-10-17T12:13:04.743Z,4.80
2022-10-17T12:14:06.164Z,4.80
2022-10-17T12:15:04.719Z,5.00
2022-10-17T12:16:04.689Z,4.60
2022-10-17T12:17:04.740Z,5.00
2022-10-17T12:18:04.726Z,4.90
2022-10-17T12:19:04.672Z,4.50
2022-10-17T12:20:04.659Z,4.60
2022-10-17T12:21:04.676Z,4.70
2022-10-17T12:22:04.655Z,5.00
2022-10-17T12:23:04.743Z,5.00
2022-10-17T12:24:04.963Z,5.20
2022-10-17T12:25:04.616Z,5.10
2022-10-17T12:26:05.372Z,4.60
2022-10-17T12:27:04.590Z,4.90
2022-10-17T12:28:04.600Z,5.40
2022-10-17T12:29:04.720Z,4.70
2022-10-17T12:30:04.570Z,5.00
2022-10-17T12:31:04.665Z,5.00
2022-10-17T12:32:04.559Z,5.90
2022-10-17T12:33:06.548Z,5.50
2022-10-17T12:34:04.504Z,5.70
2022-10-17T12:35:04.518Z,5.10
2022-10-17T12:36:04.489Z,5.40
2022-10-17T12:37:04.812Z,5.60
2022-10-17T12:38:04.462Z,5.50
2022-10-17T12:39:04.472Z,6.00
2022-10-17T12:40:04.451Z,5.50
2022-10-17T12:41:04.472Z,6.00
2022-10-17T12:42:04.430Z,6.30
2022-10-17T12:43:04.417Z,6.00
2022-10-17T12:44:04.455Z,5.90
2022-10-17T12:45:04.438Z,6.50
2022-10-17T12:46:04.411Z,6.70
2022-10-17T12:47:04.379Z,6.40
2022-10-17T12:48:04.348Z,7.30
2022-10-17T12:49:04.353Z,6.70
2022-10-17T12:50:04.335Z,6.70
2022-10-17T12:51:30.836Z,5.90
2022-10-17T12:52:04.339Z,6.40
2022-10-17T12:53:04.336Z,6.10
2022-10-17T12:54:04.345Z,5.60
2022-10-17T12:55:12.681Z,6.20
2022-10-17T12:56:04.321Z,7.00
2022-10-17T12:57:04.288Z,6.40
2022-10-17T12:58:04.274Z,6.00
2022-10-17T12:59:04.289Z,7.30
2022-10-17T13:00:04.258Z,7.30
2022-10-17T13:01:23.097Z,7.50
2022-10-17T13:02:04.333Z,7.60
2022-10-17T13:03:04.224Z,7.00
2022-10-17T13:04:04.244Z,7.80
2022-10-17T13:05:04.204Z,6.60
2022-10-17T13:06:04.197Z,6.20
2022-10-17T13:07:04.181Z,7.50
2022-10-17T13:08:04.164Z,6.70
2022-10-17T13:09:05.507Z,7.50
2022-10-17T13:10:04.134Z,6.70
2022-10-17T13:11:04.128Z,8.00
2022-10-17T13:12:04.115Z,7.90
2022-10-17T13:13:04.111Z,7.30
2022-10-17T13:14:04.104Z,7.10
2022-10-17T13:15:04.103Z,6.50